sensor_id;sensor_type;location;lat;lon;timestamp;P1;durP1;ratioP1;P2;durP2;ratioP2
49223;SDS011;35050;51.316;5.994;2023-06-26T00:02:17;3.28;;;2.97;;
49223;SDS011;35050;51.316;5.994;2023-06-26T00:04:43;3.25;;;2.97;;
49223;SDS011;35050;51.316;5.994;2023-06-26T00:07:09;2.92;;;2.72;;
49223;SDS011;35050;51.316;5.994;2023-06-26T00:09:35;4.32;;;2.97;;
49223;SDS011;35050;51.316;5.994;2023-06-26T00:12:01;3.42;;;3.13;;
49223;SDS011;35050;51.316;5.994;2023-06-26T00:14:27;3.40;;;3.10;;
49223;SDS011;35050;51.316;5.994;2023-06-26T00:16:53;3.33;;;3.10;;
49223;SDS011;35050;51.316;5.994;2023-06-26T00:19:19;3.25;;;3.00;;
49223;SDS011;35050;51.316;5.994;2023-06-26T00:21:44;3.38;;;3.08;;
49223;SDS011;35050;51.316;5.994;2023-06-26T00:24:13;4.00;;;3.00;;
49223;SDS011;35050;51.316;5.994;2023-06-26T00:26:39;3.28;;;2.97;;
49223;SDS011;35050;51.316;5.994;2023-06-26T00:29:05;3.95;;;3.25;;
49223;SDS011;35050;51.316;5.994;2023-06-26T00:31:31;3.55;;;3.25;;
49223;SDS011;35050;51.316;5.994;2023-06-26T00:33:56;3.83;;;3.42;;
49223;SDS011;35050;51.316;5.994;2023-06-26T00:36:22;3.53;;;3.13;;
49223;SDS011;35050;51.316;5.994;2023-06-26T00:38:48;3.83;;;3.35;;
49223;SDS011;35050;51.316;5.994;2023-06-26T00:41:14;3.58;;;3.28;;
49223;SDS011;35050;51.316;5.994;2023-06-26T00:43:40;3.88;;;3.58;;
49223;SDS011;35050;51.316;5.994;2023-06-26T00:46:08;3.45;;;3.20;;
49223;SDS011;35050;51.316;5.994;2023-06-26T00:48:35;4.00;;;3.53;;
49223;SDS011;35050;51.316;5.994;2023-06-26T00:51:02;3.42;;;3.13;;
49223;SDS011;35050;51.316;5.994;2023-06-26T00:53:28;4.72;;;3.50;;
49223;SDS011;35050;51.316;5.994;2023-06-26T00:55:55;3.80;;;3.50;;
49223;SDS011;35050;51.316;5.994;2023-06-26T00:58:24;3.72;;;3.30;;
49223;SDS011;35050;51.316;5.994;2023-06-26T01:00:52;3.63;;;3.30;;
49223;SDS011;35050;51.316;5.994;2023-06-26T01:03:19;3.08;;;2.88;;
49223;SDS011;35050;51.316;5.994;2023-06-26T01:05:46;3.47;;;3.20;;
49223;SDS011;35050;51.316;5.994;2023-06-26T01:08:15;3.80;;;3.50;;
49223;SDS011;35050;51.316;5.994;2023-06-26T01:10:42;3.67;;;3.38;;
49223;SDS011;35050;51.316;5.994;2023-06-26T01:13:08;3.97;;;3.28;;
49223;SDS011;35050;51.316;5.994;2023-06-26T01:15:34;3.55;;;3.25;;
49223;SDS011;35050;51.316;5.994;2023-06-26T01:18:00;3.28;;;2.97;;
49223;SDS011;35050;51.316;5.994;2023-06-26T01:20:32;3.40;;;3.10;;
49223;SDS011;35050;51.316;5.994;2023-06-26T01:28:33;3.35;;;3.05;;
49223;SDS011;35050;51.316;5.994;2023-06-26T01:31:01;3.80;;;3.50;;
49223;SDS011;35050;51.316;5.994;2023-06-26T01:33:27;5.65;;;3.53;;
49223;SDS011;35050;51.316;5.994;2023-06-26T01:35:53;3.80;;;3.40;;
49223;SDS011;35050;51.316;5.994;2023-06-26T01:38:20;3.70;;;3.40;;
49223;SDS011;35050;51.316;5.994;2023-06-26T01:40:48;3.85;;;3.53;;
49223;SDS011;35050;51.316;5.994;2023-06-26T01:46:03;3.80;;;3.50;;
49223;SDS011;35050;51.316;5.994;2023-06-26T01:48:35;4.68;;;4.28;;
49223;SDS011;35050;51.316;5.994;2023-06-26T01:51:12;4.50;;;4.10;;
49223;SDS011;35050;51.316;5.994;2023-06-26T01:53:44;4.63;;;4.20;;
49223;SDS011;35050;51.316;5.994;2023-06-26T01:56:16;4.57;;;3.63;;
49223;SDS011;35050;51.316;5.994;2023-06-26T01:58:44;4.55;;;3.58;;
49223;SDS011;35050;51.316;5.994;2023-06-26T02:01:12;4.10;;;3.25;;
49223;SDS011;35050;51.316;5.994;2023-06-26T02:03:38;3.58;;;3.28;;
49223;SDS011;35050;51.316;5.994;2023-06-26T02:06:03;3.72;;;3.42;;
49223;SDS011;35050;51.316;5.994;2023-06-26T02:08:29;3.88;;;3.22;;
49223;SDS011;35050;51.316;5.994;2023-06-26T02:10:55;3.70;;;3.40;;
49223;SDS011;35050;51.316;5.994;2023-06-26T02:13:20;3.25;;;2.95;;
49223;SDS011;35050;51.316;5.994;2023-06-26T02:15:46;3.20;;;2.90;;
49223;SDS011;35050;51.316;5.994;2023-06-26T02:18:11;3.20;;;2.90;;
49223;SDS011;35050;51.316;5.994;2023-06-26T02:20:37;3.50;;;3.08;;
49223;SDS011;35050;51.316;5.994;2023-06-26T02:23:03;3.42;;;3.13;;
49223;SDS011;35050;51.316;5.994;2023-06-26T02:25:28;4.75;;;3.13;;
49223;SDS011;35050;51.316;5.994;2023-06-26T02:27:54;4.00;;;3.60;;
49223;SDS011;35050;51.316;5.994;2023-06-26T02:30:20;4.30;;;3.90;;
49223;SDS011;35050;51.316;5.994;2023-06-26T02:32:45;3.70;;;3.40;;
49223;SDS011;35050;51.316;5.994;2023-06-26T02:35:11;3.53;;;3.22;;
49223;SDS011;35050;51.316;5.994;2023-06-26T02:37:37;3.53;;;3.22;;
49223;SDS011;35050;51.316;5.994;2023-06-26T02:40:03;3.35;;;3.05;;
49223;SDS011;35050;51.316;5.994;2023-06-26T02:42:30;3.70;;;3.40;;
49223;SDS011;35050;51.316;5.994;2023-06-26T02:44:56;3.85;;;3.55;;
49223;SDS011;35050;51.316;5.994;2023-06-26T02:47:22;4.68;;;3.22;;
49223;SDS011;35050;51.316;5.994;2023-06-26T02:49:47;3.50;;;3.20;;
49223;SDS011;35050;51.316;5.994;2023-06-26T02:52:13;3.60;;;3.30;;
49223;SDS011;35050;51.316;5.994;2023-06-26T02:54:39;5.07;;;2.92;;
49223;SDS011;35050;51.316;5.994;2023-06-26T02:57:04;3.65;;;3.30;;
49223;SDS011;35050;51.316;5.994;2023-06-26T02:59:30;4.57;;;3.88;;
49223;SDS011;35050;51.316;5.994;2023-06-26T03:01:56;5.07;;;3.80;;
49223;SDS011;35050;51.316;5.994;2023-06-26T03:04:21;3.35;;;3.05;;
49223;SDS011;35050;51.316;5.994;2023-06-26T03:06:47;4.57;;;3.00;;
49223;SDS011;35050;51.316;5.994;2023-06-26T03:09:12;3.42;;;3.13;;
49223;SDS011;35050;51.316;5.994;2023-06-26T03:11:38;6.20;;;3.40;;
49223;SDS011;35050;51.316;5.994;2023-06-26T03:14:04;3.65;;;3.35;;
49223;SDS011;35050;51.316;5.994;2023-06-26T03:16:29;4.72;;;3.55;;
49223;SDS011;35050;51.316;5.994;2023-06-26T03:18:55;3.83;;;3.50;;
49223;SDS011;35050;51.316;5.994;2023-06-26T03:21:20;3.58;;;3.17;;
49223;SDS011;35050;51.316;5.994;2023-06-26T03:23:46;3.92;;;3.40;;
49223;SDS011;35050;51.316;5.994;2023-06-26T03:26:12;3.72;;;3.05;;
49223;SDS011;35050;51.316;5.994;2023-06-26T03:28:39;3.38;;;3.08;;
49223;SDS011;35050;51.316;5.994;2023-06-26T03:31:07;3.47;;;3.17;;
49223;SDS011;35050;51.316;5.994;2023-06-26T03:33:32;3.42;;;2.90;;
49223;SDS011;35050;51.316;5.994;2023-06-26T03:35:58;3.05;;;2.75;;
49223;SDS011;35050;51.316;5.994;2023-06-26T03:38:24;3.20;;;2.80;;
49223;SDS011;35050;51.316;5.994;2023-06-26T03:40:51;3.05;;;2.80;;
49223;SDS011;35050;51.316;5.994;2023-06-26T03:43:17;3.28;;;2.97;;
49223;SDS011;35050;51.316;5.994;2023-06-26T03:45:42;3.72;;;2.80;;
49223;SDS011;35050;51.316;5.994;2023-06-26T03:48:08;2.92;;;2.63;;
49223;SDS011;35050;51.316;5.994;2023-06-26T03:50:34;3.22;;;2.90;;
49223;SDS011;35050;51.316;5.994;2023-06-26T03:52:59;2.50;;;2.30;;
49223;SDS011;35050;51.316;5.994;2023-06-26T03:55:25;3.88;;;2.45;;
49223;SDS011;35050;51.316;5.994;2023-06-26T03:57:50;3.10;;;2.80;;
49223;SDS011;35050;51.316;5.994;2023-06-26T04:00:16;5.03;;;3.20;;
49223;SDS011;35050;51.316;5.994;2023-06-26T04:02:42;3.58;;;3.00;;
49223;SDS011;35050;51.316;5.994;2023-06-26T04:05:08;3.50;;;2.60;;
49223;SDS011;35050;51.316;5.994;2023-06-26T04:07:34;4.15;;;2.70;;
49223;SDS011;35050;51.316;5.994;2023-06-26T04:10:00;3.65;;;2.50;;
49223;SDS011;35050;51.316;5.994;2023-06-26T04:12:26;4.38;;;2.70;;
49223;SDS011;35050;51.316;5.994;2023-06-26T04:14:52;3.55;;;2.80;;
49223;SDS011;35050;51.316;5.994;2023-06-26T04:17:18;2.75;;;2.50;;
49223;SDS011;35050;51.316;5.994;2023-06-26T04:19:43;3.78;;;2.78;;
49223;SDS011;35050;51.316;5.994;2023-06-26T04:22:09;2.97;;;2.55;;
49223;SDS011;35050;51.316;5.994;2023-06-26T04:24:35;3.30;;;2.30;;
49223;SDS011;35050;51.316;5.994;2023-06-26T04:27:00;2.72;;;2.53;;
49223;SDS011;35050;51.316;5.994;2023-06-26T04:29:26;3.72;;;2.50;;
49223;SDS011;35050;51.316;5.994;2023-06-26T04:31:52;5.05;;;2.50;;
49223;SDS011;35050;51.316;5.994;2023-06-26T04:34:23;3.97;;;2.30;;
49223;SDS011;35050;51.316;5.994;2023-06-26T04:36:52;5.05;;;2.80;;
49223;SDS011;35050;51.316;5.994;2023-06-26T04:39:18;2.60;;;2.25;;
49223;SDS011;35050;51.316;5.994;2023-06-26T04:41:44;3.20;;;2.63;;
49223;SDS011;35050;51.316;5.994;2023-06-26T04:44:10;5.57;;;3.63;;
49223;SDS011;35050;51.316;5.994;2023-06-26T04:46:36;4.28;;;3.33;;
49223;SDS011;35050;51.316;5.994;2023-06-26T04:49:06;4.50;;;2.83;;
49223;SDS011;35050;51.316;5.994;2023-06-26T04:51:32;4.63;;;3.75;;
49223;SDS011;35050;51.316;5.994;2023-06-26T04:53:58;3.97;;;3.00;;
49223;SDS011;35050;51.316;5.994;2023-06-26T04:56:23;3.95;;;3.30;;
49223;SDS011;35050;51.316;5.994;2023-06-26T04:58:49;3.50;;;2.58;;
49223;SDS011;35050;51.316;5.994;2023-06-26T05:01:15;3.92;;;2.78;;
49223;SDS011;35050;51.316;5.994;2023-06-26T05:03:40;4.22;;;3.13;;
49223;SDS011;35050;51.316;5.994;2023-06-26T05:06:06;3.55;;;3.05;;
49223;SDS011;35050;51.316;5.994;2023-06-26T05:08:31;3.15;;;2.85;;
49223;SDS011;35050;51.316;5.994;2023-06-26T05:10:57;3.13;;;2.83;;
49223;SDS011;35050;51.316;5.994;2023-06-26T05:13:23;8.25;;;3.28;;
49223;SDS011;35050;51.316;5.994;2023-06-26T05:15:50;4.18;;;3.13;;
49223;SDS011;35050;51.316;5.994;2023-06-26T05:18:16;4.50;;;2.92;;
49223;SDS011;35050;51.316;5.994;2023-06-26T05:20:42;4.65;;;3.40;;
49223;SDS011;35050;51.316;5.994;2023-06-26T05:23:08;3.40;;;3.10;;
49223;SDS011;35050;51.316;5.994;2023-06-26T05:25:37;3.50;;;2.60;;
49223;SDS011;35050;51.316;5.994;2023-06-26T05:28:03;5.72;;;3.08;;
49223;SDS011;35050;51.316;5.994;2023-06-26T05:30:33;4.43;;;2.97;;
49223;SDS011;35050;51.316;5.994;2023-06-26T05:33:02;3.80;;;3.33;;
49223;SDS011;35050;51.316;5.994;2023-06-26T05:35:28;4.88;;;3.10;;
49223;SDS011;35050;51.316;5.994;2023-06-26T05:37:55;6.40;;;3.20;;
49223;SDS011;35050;51.316;5.994;2023-06-26T05:40:22;3.83;;;2.90;;
49223;SDS011;35050;51.316;5.994;2023-06-26T05:42:48;5.88;;;3.28;;
49223;SDS011;35050;51.316;5.994;2023-06-26T05:45:14;6.70;;;3.80;;
49223;SDS011;35050;51.316;5.994;2023-06-26T05:47:40;5.38;;;3.15;;
49223;SDS011;35050;51.316;5.994;2023-06-26T05:50:07;6.18;;;2.92;;
49223;SDS011;35050;51.316;5.994;2023-06-26T05:52:34;6.22;;;3.20;;
49223;SDS011;35050;51.316;5.994;2023-06-26T05:55:00;5.25;;;3.30;;
49223;SDS011;35050;51.316;5.994;2023-06-26T05:57:27;6.47;;;3.10;;
49223;SDS011;35050;51.316;5.994;2023-06-26T05:59:54;5.43;;;3.17;;
49223;SDS011;35050;51.316;5.994;2023-06-26T06:02:20;7.82;;;3.10;;
49223;SDS011;35050;51.316;5.994;2023-06-26T06:04:46;7.82;;;2.92;;
49223;SDS011;35050;51.316;5.994;2023-06-26T06:07:12;6.80;;;3.28;;
49223;SDS011;35050;51.316;5.994;2023-06-26T06:09:38;7.43;;;3.50;;
49223;SDS011;35050;51.316;5.994;2023-06-26T06:12:04;5.30;;;3.45;;
49223;SDS011;35050;51.316;5.994;2023-06-26T06:14:31;4.35;;;3.03;;
49223;SDS011;35050;51.316;5.994;2023-06-26T06:16:57;10.25;;;3.70;;
49223;SDS011;35050;51.316;5.994;2023-06-26T06:19:22;6.72;;;3.03;;
49223;SDS011;35050;51.316;5.994;2023-06-26T06:21:48;6.30;;;3.40;;
49223;SDS011;35050;51.316;5.994;2023-06-26T06:24:14;3.78;;;2.40;;
49223;SDS011;35050;51.316;5.994;2023-06-26T06:26:39;5.35;;;2.35;;
49223;SDS011;35050;51.316;5.994;2023-06-26T06:29:05;6.38;;;2.92;;
49223;SDS011;35050;51.316;5.994;2023-06-26T06:31:31;5.43;;;2.45;;
49223;SDS011;35050;51.316;5.994;2023-06-26T06:33:57;6.82;;;3.00;;
49223;SDS011;35050;51.316;5.994;2023-06-26T06:36:22;8.52;;;2.90;;
49223;SDS011;35050;51.316;5.994;2023-06-26T06:38:48;5.82;;;2.75;;
49223;SDS011;35050;51.316;5.994;2023-06-26T06:41:14;3.90;;;2.03;;
49223;SDS011;35050;51.316;5.994;2023-06-26T06:43:40;4.22;;;2.00;;
49223;SDS011;35050;51.316;5.994;2023-06-26T06:46:07;4.28;;;2.22;;
49223;SDS011;35050;51.316;5.994;2023-06-26T06:48:32;4.32;;;2.30;;
49223;SDS011;35050;51.316;5.994;2023-06-26T06:50:58;9.75;;;2.80;;
49223;SDS011;35050;51.316;5.994;2023-06-26T06:53:23;7.38;;;2.83;;
49223;SDS011;35050;51.316;5.994;2023-06-26T06:55:49;5.28;;;2.20;;
49223;SDS011;35050;51.316;5.994;2023-06-26T06:58:15;6.40;;;2.58;;
49223;SDS011;35050;51.316;5.994;2023-06-26T07:00:47;4.43;;;2.38;;
49223;SDS011;35050;51.316;5.994;2023-06-26T07:03:13;4.68;;;2.45;;
49223;SDS011;35050;51.316;5.994;2023-06-26T07:05:41;3.08;;;1.85;;
49223;SDS011;35050;51.316;5.994;2023-06-26T07:08:07;5.60;;;2.17;;
49223;SDS011;35050;51.316;5.994;2023-06-26T07:10:33;4.18;;;2.45;;
49223;SDS011;35050;51.316;5.994;2023-06-26T07:12:59;4.65;;;2.40;;
49223;SDS011;35050;51.316;5.994;2023-06-26T07:15:25;7.10;;;2.90;;
49223;SDS011;35050;51.316;5.994;2023-06-26T07:17:50;6.57;;;2.63;;
49223;SDS011;35050;51.316;5.994;2023-06-26T07:20:16;5.93;;;2.58;;
49223;SDS011;35050;51.316;5.994;2023-06-26T07:22:42;15.40;;;2.75;;
49223;SDS011;35050;51.316;5.994;2023-06-26T07:25:09;9.88;;;2.72;;
49223;SDS011;35050;51.316;5.994;2023-06-26T07:27:36;4.07;;;2.53;;
49223;SDS011;35050;51.316;5.994;2023-06-26T07:30:02;5.57;;;2.67;;
49223;SDS011;35050;51.316;5.994;2023-06-26T07:32:28;6.43;;;2.63;;
49223;SDS011;35050;51.316;5.994;2023-06-26T07:34:54;6.97;;;2.67;;
49223;SDS011;35050;51.316;5.994;2023-06-26T07:37:20;8.88;;;2.92;;
49223;SDS011;35050;51.316;5.994;2023-06-26T07:39:45;6.35;;;2.65;;
49223;SDS011;35050;51.316;5.994;2023-06-26T07:42:12;3.78;;;2.35;;
49223;SDS011;35050;51.316;5.994;2023-06-26T07:44:37;4.68;;;2.30;;
49223;SDS011;35050;51.316;5.994;2023-06-26T07:47:03;6.30;;;2.10;;
49223;SDS011;35050;51.316;5.994;2023-06-26T07:49:29;8.40;;;2.50;;
49223;SDS011;35050;51.316;5.994;2023-06-26T07:51:55;7.22;;;2.53;;
49223;SDS011;35050;51.316;5.994;2023-06-26T07:54:20;4.32;;;2.05;;
49223;SDS011;35050;51.316;5.994;2023-06-26T07:56:56;4.35;;;1.98;;
49223;SDS011;35050;51.316;5.994;2023-06-26T07:59:24;4.03;;;1.90;;
49223;SDS011;35050;51.316;5.994;2023-06-26T08:01:51;3.60;;;1.90;;
49223;SDS011;35050;51.316;5.994;2023-06-26T08:04:22;3.83;;;1.77;;
49223;SDS011;35050;51.316;5.994;2023-06-26T08:06:53;5.72;;;2.28;;
49223;SDS011;35050;51.316;5.994;2023-06-26T08:09:21;6.20;;;2.13;;
49223;SDS011;35050;51.316;5.994;2023-06-26T08:11:48;5.10;;;2.10;;
49223;SDS011;35050;51.316;5.994;2023-06-26T08:14:14;7.05;;;2.63;;
49223;SDS011;35050;51.316;5.994;2023-06-26T08:16:41;5.22;;;2.15;;
49223;SDS011;35050;51.316;5.994;2023-06-26T08:19:07;2.78;;;1.73;;
49223;SDS011;35050;51.316;5.994;2023-06-26T08:21:33;4.00;;;1.63;;
49223;SDS011;35050;51.316;5.994;2023-06-26T08:23:59;3.50;;;1.85;;
49223;SDS011;35050;51.316;5.994;2023-06-26T08:26:25;2.90;;;1.70;;
49223;SDS011;35050;51.316;5.994;2023-06-26T08:28:50;6.15;;;2.17;;
49223;SDS011;35050;51.316;5.994;2023-06-26T08:31:16;2.75;;;1.65;;
49223;SDS011;35050;51.316;5.994;2023-06-26T08:33:42;2.30;;;1.50;;
49223;SDS011;35050;51.316;5.994;2023-06-26T08:36:08;4.22;;;1.67;;
49223;SDS011;35050;51.316;5.994;2023-06-26T08:38:34;9.57;;;2.20;;
49223;SDS011;35050;51.316;5.994;2023-06-26T08:40:59;5.45;;;2.20;;
49223;SDS011;35050;51.316;5.994;2023-06-26T08:43:25;4.28;;;1.85;;
49223;SDS011;35050;51.316;5.994;2023-06-26T08:45:52;2.78;;;1.58;;
49223;SDS011;35050;51.316;5.994;2023-06-26T08:48:17;4.03;;;1.70;;
49223;SDS011;35050;51.316;5.994;2023-06-26T08:50:43;2.25;;;1.58;;
49223;SDS011;35050;51.316;5.994;2023-06-26T08:53:11;2.63;;;1.52;;
49223;SDS011;35050;51.316;5.994;2023-06-26T08:55:43;3.63;;;1.83;;
49223;SDS011;35050;51.316;5.994;2023-06-26T08:58:09;4.13;;;1.85;;
49223;SDS011;35050;51.316;5.994;2023-06-26T09:00:35;2.45;;;1.35;;
49223;SDS011;35050;51.316;5.994;2023-06-26T09:03:01;3.13;;;1.70;;
49223;SDS011;35050;51.316;5.994;2023-06-26T09:05:29;4.18;;;1.67;;
49223;SDS011;35050;51.316;5.994;2023-06-26T09:07:56;1.65;;;1.40;;
49223;SDS011;35050;51.316;5.994;2023-06-26T09:10:23;6.97;;;2.28;;
49223;SDS011;35050;51.316;5.994;2023-06-26T09:12:49;2.85;;;1.83;;
49223;SDS011;35050;51.316;5.994;2023-06-26T09:15:15;2.28;;;1.63;;
49223;SDS011;35050;51.316;5.994;2023-06-26T09:17:44;1.42;;;1.20;;
49223;SDS011;35050;51.316;5.994;2023-06-26T09:20:10;3.53;;;1.40;;
49223;SDS011;35050;51.316;5.994;2023-06-26T09:22:37;2.53;;;1.58;;
49223;SDS011;35050;51.316;5.994;2023-06-26T09:25:05;2.08;;;1.30;;
49223;SDS011;35050;51.316;5.994;2023-06-26T09:27:31;2.85;;;1.60;;
49223;SDS011;35050;51.316;5.994;2023-06-26T09:29:57;1.67;;;1.27;;
49223;SDS011;35050;51.316;5.994;2023-06-26T09:32:26;2.20;;;1.35;;
49223;SDS011;35050;51.316;5.994;2023-06-26T09:34:52;2.83;;;1.00;;
49223;SDS011;35050;51.316;5.994;2023-06-26T09:37:20;1.35;;;1.00;;
49223;SDS011;35050;51.316;5.994;2023-06-26T09:39:47;2.45;;;1.10;;
49223;SDS011;35050;51.316;5.994;2023-06-26T09:42:14;3.25;;;1.15;;
49223;SDS011;35050;51.316;5.994;2023-06-26T09:44:44;2.08;;;1.10;;
49223;SDS011;35050;51.316;5.994;2023-06-26T09:47:10;2.10;;;0.80;;
49223;SDS011;35050;51.316;5.994;2023-06-26T09:49:36;0.98;;;0.63;;
49223;SDS011;35050;51.316;5.994;2023-06-26T09:52:02;2.78;;;1.15;;
49223;SDS011;35050;51.316;5.994;2023-06-26T09:54:28;2.70;;;1.00;;
49223;SDS011;35050;51.316;5.994;2023-06-26T09:56:55;5.82;;;1.10;;
49223;SDS011;35050;51.316;5.994;2023-06-26T09:59:31;3.78;;;1.13;;
49223;SDS011;35050;51.316;5.994;2023-06-26T10:01:58;2.17;;;0.95;;
49223;SDS011;35050;51.316;5.994;2023-06-26T10:04:25;2.47;;;0.90;;
49223;SDS011;35050;51.316;5.994;2023-06-26T10:06:51;1.63;;;1.00;;
49223;SDS011;35050;51.316;5.994;2023-06-26T10:09:19;1.98;;;1.17;;
49223;SDS011;35050;51.316;5.994;2023-06-26T10:11:47;1.02;;;0.90;;
49223;SDS011;35050;51.316;5.994;2023-06-26T10:14:14;3.38;;;1.05;;
49223;SDS011;35050;51.316;5.994;2023-06-26T10:16:41;3.03;;;1.00;;
49223;SDS011;35050;51.316;5.994;2023-06-26T10:19:08;2.35;;;0.85;;
49223;SDS011;35050;51.316;5.994;2023-06-26T10:21:35;1.27;;;0.95;;
49223;SDS011;35050;51.316;5.994;2023-06-26T10:24:04;4.75;;;1.15;;
49223;SDS011;35050;51.316;5.994;2023-06-26T10:26:31;1.25;;;0.98;;
49223;SDS011;35050;51.316;5.994;2023-06-26T10:29:03;2.45;;;1.02;;
49223;SDS011;35050;51.316;5.994;2023-06-26T10:31:30;1.10;;;0.80;;
49223;SDS011;35050;51.316;5.994;2023-06-26T10:33:57;2.47;;;0.93;;
49223;SDS011;35050;51.316;5.994;2023-06-26T10:36:27;3.58;;;1.15;;
49223;SDS011;35050;51.316;5.994;2023-06-26T10:38:57;2.03;;;1.05;;
49223;SDS011;35050;51.316;5.994;2023-06-26T10:41:24;1.15;;;0.82;;
49223;SDS011;35050;51.316;5.994;2023-06-26T10:46:27;4.10;;;1.02;;
49223;SDS011;35050;51.316;5.994;2023-06-26T10:49:01;1.13;;;0.77;;
49223;SDS011;35050;51.316;5.994;2023-06-26T10:51:27;1.80;;;0.85;;
49223;SDS011;35050;51.316;5.994;2023-06-26T10:53:56;1.05;;;0.75;;
49223;SDS011;35050;51.316;5.994;2023-06-26T10:59:24;0.93;;;0.60;;
49223;SDS011;35050;51.316;5.994;2023-06-26T11:01:54;2.05;;;0.90;;
49223;SDS011;35050;51.316;5.994;2023-06-26T11:04:38;1.75;;;0.80;;
49223;SDS011;35050;51.316;5.994;2023-06-26T11:07:21;1.20;;;0.47;;
49223;SDS011;35050;51.316;5.994;2023-06-26T11:12:33;4.13;;;0.75;;
49223;SDS011;35050;51.316;5.994;2023-06-26T11:15:06;1.58;;;0.90;;
49223;SDS011;35050;51.316;5.994;2023-06-26T11:17:36;6.63;;;1.10;;
49223;SDS011;35050;51.316;5.994;2023-06-26T11:20:04;2.05;;;0.85;;
49223;SDS011;35050;51.316;5.994;2023-06-26T11:22:35;1.15;;;0.75;;
49223;SDS011;35050;51.316;5.994;2023-06-26T11:25:02;1.80;;;0.93;;
49223;SDS011;35050;51.316;5.994;2023-06-26T11:30:04;2.45;;;0.80;;
49223;SDS011;35050;51.316;5.994;2023-06-26T11:32:31;0.95;;;0.65;;
49223;SDS011;35050;51.316;5.994;2023-06-26T11:34:59;1.05;;;0.80;;
49223;SDS011;35050;51.316;5.994;2023-06-26T11:37:25;2.05;;;0.95;;
49223;SDS011;35050;51.316;5.994;2023-06-26T11:39:51;3.00;;;0.90;;
49223;SDS011;35050;51.316;5.994;2023-06-26T11:42:18;2.05;;;0.85;;
49223;SDS011;35050;51.316;5.994;2023-06-26T11:44:44;3.13;;;0.80;;
49223;SDS011;35050;51.316;5.994;2023-06-26T11:47:14;5.90;;;1.23;;
49223;SDS011;35050;51.316;5.994;2023-06-26T11:49:44;3.65;;;1.02;;
49223;SDS011;35050;51.316;5.994;2023-06-26T11:52:10;1.23;;;0.70;;
49223;SDS011;35050;51.316;5.994;2023-06-26T11:54:36;1.50;;;0.85;;
49223;SDS011;35050;51.316;5.994;2023-06-26T11:57:02;2.92;;;0.93;;
49223;SDS011;35050;51.316;5.994;2023-06-26T11:59:33;1.02;;;0.70;;
49223;SDS011;35050;51.316;5.994;2023-06-26T12:01:59;2.05;;;1.00;;
49223;SDS011;35050;51.316;5.994;2023-06-26T12:04:25;1.38;;;0.60;;
49223;SDS011;35050;51.316;5.994;2023-06-26T12:06:51;1.90;;;0.98;;
49223;SDS011;35050;51.316;5.994;2023-06-26T12:09:22;2.08;;;0.73;;
49223;SDS011;35050;51.316;5.994;2023-06-26T12:11:50;2.70;;;0.57;;
49223;SDS011;35050;51.316;5.994;2023-06-26T12:14:20;1.42;;;0.77;;
49223;SDS011;35050;51.316;5.994;2023-06-26T12:16:47;1.08;;;0.70;;
49223;SDS011;35050;51.316;5.994;2023-06-26T12:19:13;2.58;;;1.13;;
49223;SDS011;35050;51.316;5.994;2023-06-26T12:24:17;1.20;;;0.80;;
49223;SDS011;35050;51.316;5.994;2023-06-26T12:26:46;1.15;;;0.63;;
49223;SDS011;35050;51.316;5.994;2023-06-26T12:29:16;2.70;;;1.08;;
49223;SDS011;35050;51.316;5.994;2023-06-26T12:31:48;3.58;;;1.35;;
49223;SDS011;35050;51.316;5.994;2023-06-26T12:34:18;2.30;;;1.20;;
49223;SDS011;35050;51.316;5.994;2023-06-26T12:36:46;2.20;;;0.85;;
49223;SDS011;35050;51.316;5.994;2023-06-26T12:39:15;1.73;;;0.80;;
49223;SDS011;35050;51.316;5.994;2023-06-26T12:41:49;3.72;;;1.00;;
49223;SDS011;35050;51.316;5.994;2023-06-26T12:46:49;3.33;;;1.08;;
49223;SDS011;35050;51.316;5.994;2023-06-26T12:49:18;8.00;;;1.38;;
49223;SDS011;35050;51.316;5.994;2023-06-26T12:51:44;1.48;;;0.80;;
49223;SDS011;35050;51.316;5.994;2023-06-26T12:54:10;1.40;;;0.65;;
49223;SDS011;35050;51.316;5.994;2023-06-26T12:56:36;2.15;;;0.90;;
49223;SDS011;35050;51.316;5.994;2023-06-26T12:59:01;2.45;;;0.90;;
49223;SDS011;35050;51.316;5.994;2023-06-26T13:01:27;1.23;;;0.73;;
49223;SDS011;35050;51.316;5.994;2023-06-26T13:03:53;1.80;;;0.88;;
49223;SDS011;35050;51.316;5.994;2023-06-26T13:06:19;2.25;;;1.10;;
49223;SDS011;35050;51.316;5.994;2023-06-26T13:08:45;3.30;;;0.85;;
49223;SDS011;35050;51.316;5.994;2023-06-26T13:11:10;0.82;;;0.70;;
49223;SDS011;35050;51.316;5.994;2023-06-26T13:13:36;2.40;;;1.00;;
49223;SDS011;35050;51.316;5.994;2023-06-26T13:16:01;1.35;;;0.90;;
49223;SDS011;35050;51.316;5.994;2023-06-26T13:18:27;1.77;;;1.13;;
49223;SDS011;35050;51.316;5.994;2023-06-26T13:20:53;1.58;;;0.73;;
49223;SDS011;35050;51.316;5.994;2023-06-26T13:23:18;1.73;;;1.00;;
49223;SDS011;35050;51.316;5.994;2023-06-26T13:25:44;3.63;;;1.02;;
49223;SDS011;35050;51.316;5.994;2023-06-26T13:28:10;0.85;;;0.73;;
49223;SDS011;35050;51.316;5.994;2023-06-26T13:30:36;1.63;;;1.10;;
49223;SDS011;35050;51.316;5.994;2023-06-26T13:33:02;1.80;;;0.93;;
49223;SDS011;35050;51.316;5.994;2023-06-26T13:35:28;1.83;;;0.80;;
49223;SDS011;35050;51.316;5.994;2023-06-26T13:37:53;1.40;;;0.80;;
49223;SDS011;35050;51.316;5.994;2023-06-26T13:40:19;1.88;;;1.00;;
49223;SDS011;35050;51.316;5.994;2023-06-26T13:42:45;1.80;;;0.88;;
49223;SDS011;35050;51.316;5.994;2023-06-26T13:45:10;0.80;;;0.80;;
49223;SDS011;35050;51.316;5.994;2023-06-26T13:47:36;1.77;;;0.70;;
49223;SDS011;35050;51.316;5.994;2023-06-26T13:50:06;0.70;;;0.70;;
49223;SDS011;35050;51.316;5.994;2023-06-26T13:52:35;1.98;;;1.00;;
49223;SDS011;35050;51.316;5.994;2023-06-26T13:55:01;1.10;;;0.90;;
49223;SDS011;35050;51.316;5.994;2023-06-26T13:57:29;2.38;;;0.90;;
49223;SDS011;35050;51.316;5.994;2023-06-26T13:59:55;2.15;;;0.85;;
49223;SDS011;35050;51.316;5.994;2023-06-26T14:02:21;1.00;;;0.70;;
49223;SDS011;35050;51.316;5.994;2023-06-26T14:04:47;2.15;;;0.80;;
49223;SDS011;35050;51.316;5.994;2023-06-26T14:07:13;2.05;;;0.90;;
49223;SDS011;35050;51.316;5.994;2023-06-26T14:09:39;0.93;;;0.90;;
49223;SDS011;35050;51.316;5.994;2023-06-26T14:12:05;1.35;;;0.70;;
49223;SDS011;35050;51.316;5.994;2023-06-26T14:14:32;2.42;;;0.98;;
49223;SDS011;35050;51.316;5.994;2023-06-26T14:16:57;1.08;;;0.75;;
49223;SDS011;35050;51.316;5.994;2023-06-26T14:19:24;0.80;;;0.80;;
49223;SDS011;35050;51.316;5.994;2023-06-26T14:21:50;1.48;;;0.88;;
49223;SDS011;35050;51.316;5.994;2023-06-26T14:24:16;2.55;;;0.70;;
49223;SDS011;35050;51.316;5.994;2023-06-26T14:26:42;2.70;;;0.82;;
49223;SDS011;35050;51.316;5.994;2023-06-26T14:29:07;1.45;;;0.85;;
49223;SDS011;35050;51.316;5.994;2023-06-26T14:31:33;2.15;;;0.60;;
49223;SDS011;35050;51.316;5.994;2023-06-26T14:33:59;1.85;;;0.80;;
49223;SDS011;35050;51.316;5.994;2023-06-26T14:36:24;1.60;;;0.77;;
49223;SDS011;35050;51.316;5.994;2023-06-26T14:38:51;2.67;;;0.80;;
49223;SDS011;35050;51.316;5.994;2023-06-26T14:41:17;2.22;;;0.77;;
49223;SDS011;35050;51.316;5.994;2023-06-26T14:43:43;0.70;;;0.70;;
49223;SDS011;35050;51.316;5.994;2023-06-26T14:46:10;1.58;;;0.70;;
49223;SDS011;35050;51.316;5.994;2023-06-26T14:48:36;1.05;;;0.70;;
49223;SDS011;35050;51.316;5.994;2023-06-26T14:51:02;1.30;;;0.82;;
49223;SDS011;35050;51.316;5.994;2023-06-26T14:53:27;1.88;;;0.95;;
49223;SDS011;35050;51.316;5.994;2023-06-26T14:55:53;1.27;;;0.82;;
49223;SDS011;35050;51.316;5.994;2023-06-26T14:58:18;1.35;;;0.70;;
49223;SDS011;35050;51.316;5.994;2023-06-26T15:00:44;2.92;;;0.95;;
49223;SDS011;35050;51.316;5.994;2023-06-26T15:03:10;0.55;;;0.55;;
49223;SDS011;35050;51.316;5.994;2023-06-26T15:05:35;2.45;;;0.80;;
49223;SDS011;35050;51.316;5.994;2023-06-26T15:08:02;0.65;;;0.60;;
49223;SDS011;35050;51.316;5.994;2023-06-26T15:10:27;1.25;;;0.88;;